createdAt,value
2022-10-09T00:01:00.497Z,99142.09
2022-10-09T00:03:26.830Z,99145.31
2022-10-09T00:05:53.430Z,99140.91
2022-10-09T00:08:20.076Z,99142.91
2022-10-09T00:10:46.416Z,99138.16
2022-10-09T00:13:12.759Z,99133.88
2022-10-09T00:15:39.545Z,99126.91
2022-10-09T00:18:06.455Z,99136.94
2022-10-09T00:20:35.665Z,99130.19
2022-10-09T00:23:02.005Z,99131.31
2022-10-09T00:25:28.333Z,99131.94
2022-10-09T00:27:56.555Z,99133.31
2022-10-09T00:30:22.871Z,99132.31
2022-10-09T00:32:49.516Z,99139.78
2022-10-09T00:35:16.016Z,99134.38
2022-10-09T00:37:42.401Z,99132.63
2022-10-09T00:40:08.828Z,99147.78
2022-10-09T00:42:35.184Z,99140.47
2022-10-09T00:45:03.833Z,99140.59
2022-10-09T00:47:37.149Z,99141.59
2022-10-09T00:50:05.470Z,99137.91
2022-10-09T00:52:31.875Z,99137.03
2022-10-09T00:54:58.218Z,99138.63
2022-10-09T00:57:24.654Z,99143.44
2022-10-09T00:59:51.004Z,99148.13
2022-10-09T01:02:17.661Z,99153.34
2022-10-09T01:04:44.061Z,99151.81
2022-10-09T01:07:19.730Z,99144.28
2022-10-09T01:10:04.833Z,99151.63
2022-10-09T01:12:40.618Z,99146.94
2022-10-09T01:15:25.699Z,99155.03
2022-10-09T01:17:52.032Z,99153.50
2022-10-09T01:20:39.025Z,99150.63
2022-10-09T01:23:24.201Z,99150.28
2022-10-09T01:25:56.539Z,99144.78
2022-10-09T01:28:23.316Z,99150.13
2022-10-09T01:30:49.769Z,99145.94
2022-10-09T01:33:16.179Z,99152.97
2022-10-09T01:35:42.503Z,99152.88
2022-10-09T01:38:09.740Z,99153.19
2022-10-09T01:40:36.085Z,99155.94
2022-10-09T01:43:02.461Z,99153.47
2022-10-09T01:45:42.111Z,99151.53
2022-10-09T01:48:09.393Z,99146.63
2022-10-09T01:50:35.742Z,99147.13
2022-10-09T01:53:04.132Z,99154.38
2022-10-09T01:55:30.670Z,99152.25
2022-10-09T01:58:06.216Z,99148.66
2022-10-09T02:00:33.599Z,99147.94
2022-10-09T02:03:00.061Z,99150.44
2022-10-09T02:05:26.717Z,99145.28
2022-10-09T02:07:53.330Z,99145.31
2022-10-09T02:10:19.876Z,99144.38
2022-10-09T02:12:47.301Z,99139.69
2022-10-09T02:15:13.866Z,99135.28
2022-10-09T02:17:42.352Z,99142.34
2022-10-09T02:20:28.979Z,99145.31
2022-10-09T02:22:55.319Z,99146.41
2022-10-09T02:25:21.705Z,99152.38
2022-10-09T02:27:48.106Z,99153.59
2022-10-09T02:30:14.536Z,99155.84
2022-10-09T02:32:40.888Z,99151.75
2022-10-09T02:35:07.405Z,99163.00
2022-10-09T02:37:33.899Z,99155.91
2022-10-09T02:40:00.276Z,99152.56
2022-10-09T02:42:26.633Z,99146.22
2022-10-09T02:44:53.004Z,99149.44
2022-10-09T02:47:19.534Z,99138.13
2022-10-09T02:49:45.883Z,99143.66
2022-10-09T02:52:12.214Z,99148.56
2022-10-09T02:54:39.007Z,99131.31
2022-10-09T02:57:05.363Z,99127.75
2022-10-09T02:59:32.128Z,99124.34
2022-10-09T03:01:58.625Z,99136.84
2022-10-09T03:04:25.067Z,99141.00
2022-10-09T03:06:51.422Z,99141.31
2022-10-09T03:09:17.733Z,99148.25
2022-10-09T03:11:44.130Z,99152.03
2022-10-09T03:14:10.574Z,99150.28
2022-10-09T03:16:36.924Z,99149.81
2022-10-09T03:19:03.419Z,99155.63
2022-10-09T03:21:29.761Z,99151.53
2022-10-09T03:23:56.171Z,99151.31
2022-10-09T03:26:23.291Z,99151.63
2022-10-09T03:28:49.968Z,99151.00
2022-10-09T03:31:39.353Z,99153.75
2022-10-09T03:34:03.124Z,99148.47
2022-10-09T03:36:29.457Z,99152.84
2022-10-09T03:38:55.826Z,99150.78
2022-10-09T03:41:22.143Z,99141.91
2022-10-09T03:43:48.523Z,99147.13
2022-10-09T03:46:14.906Z,99156.25
2022-10-09T03:48:41.280Z,99152.50
2022-10-09T03:51:07.664Z,99149.09
2022-10-09T03:53:35.452Z,99160.94
2022-10-09T03:56:01.790Z,99166.81
2022-10-09T03:58:28.195Z,99162.88
2022-10-09T04:00:54.638Z,99155.22
2022-10-09T04:03:21.070Z,99168.59
2022-10-09T04:05:47.438Z,99166.13
2022-10-09T04:08:13.796Z,99164.50
2022-10-09T04:10:40.122Z,99160.53
2022-10-09T04:13:06.500Z,99162.34
2022-10-09T04:15:32.920Z,99165.91
2022-10-09T04:17:59.336Z,99164.97
2022-10-09T04:20:25.669Z,99163.69
2022-10-09T04:22:52.134Z,99157.22
2022-10-09T04:25:18.540Z,99157.78
2022-10-09T04:27:44.894Z,99160.13
2022-10-09T04:30:11.370Z,99149.34
2022-10-09T04:32:37.746Z,99151.38
2022-10-09T04:35:04.201Z,99148.03
2022-10-09T04:37:30.577Z,99151.44
2022-10-09T04:39:56.919Z,99149.97
2022-10-09T04:42:23.261Z,99138.84
2022-10-09T04:44:49.586Z,99141.47
2022-10-09T04:47:15.990Z,99139.31
2022-10-09T04:49:42.373Z,99144.66
2022-10-09T04:52:08.720Z,99139.47
2022-10-09T04:54:35.039Z,99141.41
2022-10-09T04:57:01.383Z,99144.22
2022-10-09T04:59:27.704Z,99141.31
2022-10-09T05:01:54.124Z,99134.41
2022-10-09T05:04:20.502Z,99136.88
2022-10-09T05:06:46.950Z,99142.44
2022-10-09T05:09:13.280Z,99141.00
2022-10-09T05:11:42.666Z,99145.16
2022-10-09T05:14:09.318Z,99150.22
2022-10-09T05:16:49.678Z,99143.03
2022-10-09T05:19:22.010Z,99146.66
2022-10-09T05:21:48.390Z,99146.50
2022-10-09T05:24:14.784Z,99147.22
2022-10-09T05:26:41.204Z,99153.41
2022-10-09T05:29:07.542Z,99152.50
2022-10-09T05:31:33.996Z,99153.03
2022-10-09T05:34:00.414Z,99154.53
2022-10-09T05:36:26.823Z,99159.06
2022-10-09T05:38:53.146Z,99153.94
2022-10-09T05:41:20.038Z,99163.03
2022-10-09T05:43:46.940Z,99166.00
2022-10-09T05:46:17.402Z,99157.38
2022-10-09T05:48:44.301Z,99160.31
2022-10-09T05:51:17.441Z,99157.97
2022-10-09T05:53:44.086Z,99158.50
2022-10-09T05:56:13.153Z,99161.88
2022-10-09T05:58:39.498Z,99168.72
2022-10-09T06:01:05.935Z,99166.19
2022-10-09T06:03:32.389Z,99173.75
2022-10-09T06:06:05.405Z,99178.59
2022-10-09T06:08:35.442Z,99170.25
2022-10-09T06:11:08.669Z,99173.63
2022-10-09T06:13:35.027Z,99178.50
2022-10-09T06:16:01.732Z,99175.84
2022-10-09T06:18:28.105Z,99175.47
2022-10-09T06:21:03.746Z,99176.56
2022-10-09T06:23:30.199Z,99178.28
2022-10-09T06:25:57.422Z,99169.81
2022-10-09T06:28:23.862Z,99179.13
2022-10-09T06:30:50.321Z,99179.13
2022-10-09T06:33:16.821Z,99177.91
2022-10-09T06:35:43.160Z,99179.69
2022-10-09T06:38:09.633Z,99184.59
2022-10-09T06:40:36.536Z,99183.59
2022-10-09T06:43:03.470Z,99187.47
2022-10-09T06:45:29.849Z,99191.50
2022-10-09T06:47:56.256Z,99188.44
2022-10-09T06:50:23.764Z,99183.13
2022-10-09T06:52:50.502Z,99190.41
2022-10-09T06:55:17.179Z,99191.75
2022-10-09T06:57:43.585Z,99187.38
2022-10-09T07:00:10.166Z,99189.63
2022-10-09T07:02:41.775Z,99190.03
2022-10-09T07:05:10.173Z,99188.31
2022-10-09T07:07:39.171Z,99190.34
2022-10-09T07:10:05.706Z,99194.88
2022-10-09T07:12:33.910Z,99197.03
2022-10-09T07:15:00.230Z,99192.91
2022-10-09T07:17:26.737Z,99186.69
2022-10-09T07:19:53.050Z,99199.63
2022-10-09T07:22:22.513Z,99191.56
2022-10-09T07:24:51.351Z,99187.44
2022-10-09T07:27:17.708Z,99182.53
2022-10-09T07:29:44.025Z,99175.88
2022-10-09T07:32:10.741Z,99177.03
2022-10-09T07:34:37.145Z,99177.25
2022-10-09T07:37:03.519Z,99174.34
2022-10-09T07:39:30.212Z,99189.50
2022-10-09T07:41:56.571Z,99182.34
2022-10-09T07:44:22.941Z,99178.63
2022-10-09T07:46:49.826Z,99177.31
2022-10-09T07:49:16.234Z,99187.72
2022-10-09T07:51:42.672Z,99188.03
2022-10-09T07:54:09.029Z,99193.41
2022-10-09T07:56:35.741Z,99189.34
2022-10-09T07:59:03.208Z,99191.06
2022-10-09T08:01:29.759Z,99196.78
2022-10-09T08:03:56.430Z,99186.56
2022-10-09T08:06:22.792Z,99186.06
2022-10-09T08:08:49.561Z,99182.44
2022-10-09T08:11:16.120Z,99187.34
2022-10-09T08:13:42.560Z,99188.66
2022-10-09T08:16:09.086Z,99187.41
2022-10-09T08:18:35.672Z,99189.22
2022-10-09T08:21:06.257Z,99187.88
2022-10-09T08:23:32.656Z,99180.22
2022-10-09T08:25:58.974Z,99185.56
2022-10-09T08:28:25.373Z,99190.59
2022-10-09T08:30:51.812Z,99187.78
2022-10-09T08:33:21.910Z,99185.75
2022-10-09T08:35:49.308Z,99186.91
2022-10-09T08:38:37.454Z,99181.66
2022-10-09T08:41:05.354Z,99181.84
2022-10-09T08:43:35.804Z,99182.81
2022-10-09T08:46:04.895Z,99184.84
2022-10-09T08:48:32.104Z,99186.06
2022-10-09T08:50:58.587Z,99178.22
2022-10-09T08:53:37.089Z,99176.31
2022-10-09T08:56:03.663Z,99179.09
2022-10-09T08:58:30.964Z,99175.31
2022-10-09T09:01:01.567Z,99177.63
2022-10-09T09:03:33.997Z,99173.50
2022-10-09T09:06:00.293Z,99175.06
2022-10-09T09:08:33.308Z,99172.75
2022-10-09T09:11:21.604Z,99166.19
2022-10-09T09:14:14.561Z,99165.72
2022-10-09T09:16:47.464Z,99167.47
2022-10-09T09:19:34.030Z,99165.50
2022-10-09T09:22:00.383Z,99169.66
2022-10-09T09:24:59.285Z,99169.31
2022-10-09T09:27:32.315Z,99171.28
2022-10-09T09:30:17.459Z,99158.41
2022-10-09T09:32:45.562Z,99167.94
2022-10-09T09:35:14.887Z,99157.28
2022-10-09T09:37:41.259Z,99162.63
2022-10-09T09:40:45.903Z,99161.59
2022-10-09T09:43:04.074Z,99155.59
2022-10-09T09:45:31.218Z,99160.00
2022-10-09T09:48:01.977Z,99155.59
2022-10-09T09:50:50.585Z,99155.03
2022-10-09T09:53:30.403Z,99145.09
2022-10-09T09:55:56.801Z,99142.63
2022-10-09T09:58:23.163Z,99133.06
2022-10-09T10:01:01.299Z,99140.00
2022-10-09T10:03:27.691Z,99139.19
2022-10-09T10:05:54.029Z,99140.59
2022-10-09T10:08:29.734Z,99133.78
2022-10-09T10:10:57.479Z,99134.16
2022-10-09T10:13:27.895Z,99139.13
2022-10-09T10:15:54.972Z,99129.84
2022-10-09T10:18:21.926Z,99132.94
2022-10-09T10:20:49.459Z,99130.28
2022-10-09T10:23:20.556Z,99133.66
2022-10-09T10:25:46.939Z,99127.63
2022-10-09T10:28:15.311Z,99131.00
2022-10-09T10:30:41.684Z,99127.06
2022-10-09T10:33:13.047Z,99123.63
2022-10-09T10:35:39.865Z,99122.31
2022-10-09T10:38:19.871Z,99116.09
2022-10-09T10:40:47.441Z,99114.88
2022-10-09T10:43:14.958Z,99112.28
2022-10-09T10:45:44.311Z,99105.59
2022-10-09T10:48:15.208Z,99107.25
2022-10-09T10:50:46.797Z,99107.63
2022-10-09T10:53:16.201Z,99097.53
2022-10-09T10:55:49.006Z,99105.31
2022-10-09T10:58:15.378Z,99102.09
2022-10-09T11:00:43.288Z,99091.41
2022-10-09T11:03:15.708Z,99093.63
2022-10-09T11:05:44.382Z,99096.81
2022-10-09T11:08:29.493Z,99086.75
2022-10-09T11:10:55.787Z,99088.19
2022-10-09T11:13:37.061Z,99085.03
2022-10-09T11:16:03.429Z,99084.16
2022-10-09T11:18:45.123Z,99080.13
2022-10-09T11:21:31.099Z,99075.09
2022-10-09T11:24:16.245Z,99065.13
2022-10-09T11:26:48.888Z,99075.84
2022-10-09T11:29:20.243Z,99062.00
2022-10-09T11:31:53.772Z,99061.75
2022-10-09T11:34:21.659Z,99052.75
2022-10-09T11:36:48.012Z,99054.16
2022-10-09T11:39:15.338Z,99052.63
2022-10-09T11:41:42.336Z,99052.72
2022-10-09T11:44:27.622Z,99046.09
2022-10-09T11:47:05.559Z,99033.06
2022-10-09T11:49:52.721Z,99034.19
2022-10-09T11:52:21.057Z,99035.41
2022-10-09T11:54:47.440Z,99031.91
2022-10-09T11:57:15.453Z,99036.75
2022-10-09T11:59:42.545Z,99028.59
2022-10-09T12:02:21.254Z,99027.94
2022-10-09T12:04:56.186Z,99027.19
2022-10-09T12:07:35.748Z,99016.47
2022-10-09T12:10:09.308Z,99009.59
2022-10-09T12:12:37.674Z,99008.59
2022-10-09T12:15:33.441Z,99004.88
2022-10-09T12:17:59.788Z,99001.03
2022-10-09T12:20:26.169Z,98997.03
2022-10-09T12:23:21.343Z,99007.44
2022-10-09T12:25:42.837Z,98995.13
2022-10-09T12:28:30.027Z,98988.44
2022-10-09T12:30:57.167Z,98991.13
2022-10-09T12:33:29.610Z,98986.44
2022-10-09T12:36:00.327Z,98982.34
2022-10-09T12:38:27.531Z,98979.13
2022-10-09T12:40:54.287Z,98971.00
2022-10-09T12:43:21.513Z,98978.13
2022-10-09T12:45:48.049Z,98969.34
2022-10-09T12:48:14.405Z,98966.28
2022-10-09T12:50:42.517Z,98963.50
2022-10-09T12:53:19.594Z,98963.03
2022-10-09T12:55:46.844Z,98958.78
2022-10-09T12:58:18.012Z,98954.63
2022-10-09T13:00:44.525Z,98951.66
2022-10-09T13:03:29.512Z,98951.34
2022-10-09T13:05:56.167Z,98939.69
2022-10-09T13:08:36.264Z,98943.72
2022-10-09T13:11:19.242Z,98925.50
2022-10-09T13:13:49.047Z,98930.72
2022-10-09T13:16:15.470Z,98924.44
2022-10-09T13:18:41.877Z,98918.69
2022-10-09T13:21:22.906Z,98919.28
2022-10-09T13:23:49.255Z,98916.50
2022-10-09T13:26:29.482Z,98911.34
2022-10-09T13:28:56.269Z,98912.00
2022-10-09T13:31:22.828Z,98913.91
2022-10-09T13:33:49.232Z,98922.72
2022-10-09T13:36:16.141Z,98910.06
2022-10-09T13:38:42.597Z,98907.44
2022-10-09T13:41:19.474Z,98905.78
2022-10-09T13:43:45.913Z,98898.03
2022-10-09T13:46:12.295Z,98894.44
2022-10-09T13:48:39.522Z,98898.13
2022-10-09T13:51:05.989Z,98889.75
2022-10-09T13:53:32.572Z,98889.75
2022-10-09T13:56:00.978Z,98893.28
2022-10-09T13:58:27.937Z,98891.19
2022-10-09T14:00:54.293Z,98878.28
2022-10-09T14:03:20.951Z,98870.44
2022-10-09T14:05:47.355Z,98876.53
2022-10-09T14:08:13.822Z,98870.16
2022-10-09T14:10:41.960Z,98871.09
2022-10-09T14:13:08.936Z,98864.19
2022-10-09T14:15:38.216Z,98860.81
2022-10-09T14:18:05.304Z,98866.63
2022-10-09T14:20:31.728Z,98854.41
2022-10-09T14:22:58.093Z,98851.81
2022-10-09T14:25:24.738Z,98837.44
2022-10-09T14:27:51.172Z,98828.22
2022-10-09T14:30:17.745Z,98818.97
2022-10-09T14:32:44.100Z,98817.38
2022-10-09T14:35:10.557Z,98806.16
2022-10-09T14:37:41.524Z,98805.31
2022-10-09T14:40:08.966Z,98796.72
2022-10-09T14:42:36.406Z,98802.75
2022-10-09T14:45:02.790Z,98786.38
2022-10-09T14:47:29.178Z,98792.53
2022-10-09T14:49:55.515Z,98786.66
2022-10-09T14:52:21.870Z,98785.84
2022-10-09T14:54:49.571Z,98777.69
2022-10-09T14:57:15.988Z,98778.22
2022-10-09T14:59:42.348Z,98778.47
2022-10-09T15:02:13.872Z,98777.13
2022-10-09T15:04:40.922Z,98770.38
2022-10-09T15:07:13.412Z,98772.44
2022-10-09T15:09:40.235Z,98767.50
2022-10-09T15:12:11.904Z,98752.31
2022-10-09T15:14:39.141Z,98751.66
2022-10-09T15:17:32.291Z,98746.19
2022-10-09T15:20:02.481Z,98741.22
2022-10-09T15:22:32.770Z,98744.00
2022-10-09T15:25:00.031Z,98743.28
2022-10-09T15:27:27.141Z,98744.47
2022-10-09T15:30:03.719Z,98734.66
2022-10-09T15:35:40.822Z,98732.31
2022-10-09T15:38:12.422Z,98725.41
2022-10-09T15:40:45.870Z,98719.44
2022-10-09T15:43:37.608Z,98708.75
2022-10-09T15:46:07.080Z,98722.94
2022-10-09T15:48:33.586Z,98710.16
2022-10-09T15:51:03.239Z,98714.84
2022-10-09T15:53:29.710Z,98709.06
2022-10-09T15:55:57.133Z,98710.09
2022-10-09T15:58:23.684Z,98699.91
2022-10-09T16:00:50.225Z,98702.13
2022-10-09T16:03:17.133Z,98703.22
2022-10-09T16:05:44.437Z,98704.28
2022-10-09T16:08:13.832Z,98696.34
2022-10-09T16:10:47.868Z,98692.09
2022-10-09T16:13:15.383Z,98691.88
2022-10-09T16:15:42.207Z,98691.44
2022-10-09T16:18:08.832Z,98691.88
2022-10-09T16:20:35.662Z,98680.44
2022-10-09T16:23:02.057Z,98680.19
2022-10-09T16:25:33.207Z,98681.72
2022-10-09T16:28:00.159Z,98686.50
2022-10-09T16:30:36.622Z,98676.59
2022-10-09T16:33:12.847Z,98677.91
2022-10-09T16:36:23.195Z,98677.44
2022-10-09T16:38:49.696Z,98678.47
2022-10-09T16:41:17.954Z,98672.19
2022-10-09T16:43:45.120Z,98667.72
2022-10-09T16:46:15.210Z,98660.19
2022-10-09T16:48:41.649Z,98665.03
2022-10-09T16:51:09.208Z,98668.59
2022-10-09T16:53:35.651Z,98676.94
2022-10-09T16:56:14.711Z,98670.00
2022-10-09T16:58:41.375Z,98676.38
2022-10-09T17:01:10.172Z,98677.19
2022-10-09T17:03:37.059Z,98663.31
2022-10-09T17:06:06.800Z,98668.28
2022-10-09T17:08:33.331Z,98667.22
2022-10-09T17:10:59.688Z,98671.84
2022-10-09T17:13:26.106Z,98672.22
2022-10-09T17:15:52.468Z,98670.69
2022-10-09T17:18:18.954Z,98665.94
2022-10-09T17:20:45.373Z,98660.03
2022-10-09T17:23:11.864Z,98666.41
2022-10-09T17:25:38.935Z,98657.97
2022-10-09T17:28:07.995Z,98643.97
2022-10-09T17:30:37.897Z,98649.41
2022-10-09T17:33:04.360Z,98658.88
2022-10-09T17:35:30.865Z,98657.97
2022-10-09T17:37:57.778Z,98658.91
2022-10-09T17:40:24.301Z,98658.56
2022-10-09T17:42:51.048Z,98654.84
2022-10-09T17:45:17.596Z,98666.31
2022-10-09T17:47:44.217Z,98651.97
2022-10-09T17:50:10.637Z,98651.97
2022-10-09T17:52:37.163Z,98651.50
2022-10-09T17:55:03.649Z,98654.63
2022-10-09T17:57:30.117Z,98654.41
2022-10-09T17:59:56.492Z,98642.47
2022-10-09T18:02:22.885Z,98652.19
2022-10-09T18:04:49.309Z,98643.84
2022-10-09T18:07:19.429Z,98639.00
2022-10-09T18:09:45.834Z,98630.19
2022-10-09T18:12:12.298Z,98636.22
2022-10-09T18:14:38.629Z,98639.69
2022-10-09T18:17:05.091Z,98635.09
2022-10-09T18:19:31.654Z,98634.75
2022-10-09T18:21:58.058Z,98630.34
2022-10-09T18:24:24.488Z,98622.81
2022-10-09T18:26:51.016Z,98629.84
2022-10-09T18:29:17.402Z,98629.41
2022-10-09T18:31:43.831Z,98618.97
2022-10-09T18:34:10.262Z,98619.56
2022-10-09T18:36:36.809Z,98616.56
2022-10-09T18:39:07.079Z,98620.63
2022-10-09T18:41:33.548Z,98608.81
2022-10-09T18:44:00.266Z,98607.31
2022-10-09T18:46:26.881Z,98601.75
2022-10-09T18:48:53.884Z,98596.66
2022-10-09T18:51:20.603Z,98593.56
2022-10-09T18:53:47.716Z,98589.50
2022-10-09T18:56:14.383Z,98590.91
2022-10-09T18:58:40.830Z,98583.72
2022-10-09T19:01:07.799Z,98591.47
2022-10-09T19:03:34.491Z,98577.81
2022-10-09T19:06:00.899Z,98578.25
2022-10-09T19:08:27.498Z,98571.69
2022-10-09T19:10:53.897Z,98584.97
2022-10-09T19:13:20.762Z,98572.50
2022-10-09T19:15:51.438Z,98571.00
2022-10-09T19:18:17.816Z,98561.72
2022-10-09T19:20:44.168Z,98555.25
2022-10-09T19:23:10.728Z,98561.25
2022-10-09T19:25:37.117Z,98554.22
2022-10-09T19:28:03.502Z,98558.03
2022-10-09T19:30:29.955Z,98552.47
2022-10-09T19:32:56.501Z,98547.75
2022-10-09T19:35:22.891Z,98550.75
2022-10-09T19:37:49.597Z,98545.56
2022-10-09T19:40:16.124Z,98534.44
2022-10-09T19:42:42.685Z,98541.84
2022-10-09T19:45:09.253Z,98542.56
2022-10-09T19:47:35.655Z,98537.00
2022-10-09T19:50:02.104Z,98535.38
2022-10-09T19:52:28.611Z,98542.44
2022-10-09T19:54:54.967Z,98535.47
2022-10-09T19:57:21.339Z,98527.03
2022-10-09T19:59:47.960Z,98539.88
2022-10-09T20:02:14.432Z,98535.47
2022-10-09T20:04:40.812Z,98538.84
2022-10-09T20:07:12.396Z,98531.56
2022-10-09T20:09:39.083Z,98526.22
2022-10-09T20:12:06.999Z,98527.25
2022-10-09T20:14:33.485Z,98526.75
2022-10-09T20:16:59.885Z,98527.25
2022-10-09T20:19:30.724Z,98520.56
2022-10-09T20:21:57.375Z,98522.75
2022-10-09T20:24:23.752Z,98529.25
2022-10-09T20:26:50.152Z,98519.53
2022-10-09T20:29:16.784Z,98515.72
2022-10-09T20:31:43.192Z,98509.47
2022-10-09T20:34:09.543Z,98517.34
2022-10-09T20:36:37.035Z,98515.59
2022-10-09T20:39:04.381Z,98505.97
2022-10-09T20:41:30.835Z,98505.63
2022-10-09T20:43:57.815Z,98501.56
2022-10-09T20:46:24.276Z,98492.78
2022-10-09T20:48:50.932Z,98493.50
2022-10-09T20:51:17.415Z,98502.25
2022-10-09T20:53:43.792Z,98494.88
2022-10-09T20:56:11.272Z,98496.81
2022-10-09T20:58:37.772Z,98494.28
2022-10-09T21:01:05.379Z,98490.13
2022-10-09T21:03:32.050Z,98493.66
2022-10-09T21:05:58.484Z,98492.16
2022-10-09T21:08:25.070Z,98489.41
2022-10-09T21:10:51.486Z,98497.47
2022-10-09T21:13:17.874Z,98483.94
2022-10-09T21:15:44.773Z,98483.75
2022-10-09T21:18:11.305Z,98490.19
2022-10-09T21:20:40.962Z,98488.59
2022-10-09T21:23:07.626Z,98486.69
2022-10-09T21:25:34.205Z,98494.88
2022-10-09T21:28:00.693Z,98485.22
2022-10-09T21:30:27.480Z,98478.31
2022-10-09T21:32:54.082Z,98481.19
2022-10-09T21:35:20.598Z,98474.03
2022-10-09T21:37:47.028Z,98465.72
2022-10-09T21:40:14.505Z,98471.16
2022-10-09T21:42:40.978Z,98463.84
2022-10-09T21:45:07.668Z,98471.16
2022-10-09T21:47:34.114Z,98462.22
2022-10-09T21:50:00.477Z,98467.06
2022-10-09T21:52:26.891Z,98455.53
2022-10-09T21:54:53.211Z,98456.91
2022-10-09T21:57:19.620Z,98456.53
2022-10-09T21:59:47.084Z,98458.03
2022-10-09T22:02:13.462Z,98455.81
2022-10-09T22:04:39.882Z,98450.38
2022-10-09T22:07:06.297Z,98439.09
2022-10-09T22:09:32.710Z,98444.97
2022-10-09T22:12:00.351Z,98443.84
2022-10-09T22:14:26.805Z,98451.00
2022-10-09T22:16:53.172Z,98431.47
2022-10-09T22:19:19.710Z,98421.88
2022-10-09T22:21:46.142Z,98432.47
2022-10-09T22:24:12.564Z,98428.19
2022-10-09T22:26:39.030Z,98426.84
2022-10-09T22:29:05.484Z,98426.97
2022-10-09T22:31:31.868Z,98416.84
2022-10-09T22:33:59.189Z,98424.22
2022-10-09T22:36:26.340Z,98410.38
2022-10-09T22:38:53.196Z,98417.25
2022-10-09T22:41:20.000Z,98411.13
2022-10-09T22:43:48.521Z,98407.13
2022-10-09T22:46:18.663Z,98394.91
2022-10-09T22:48:45.109Z,98399.97
2022-10-09T22:51:12.365Z,98398.59
2022-10-09T22:53:39.037Z,98398.44
2022-10-09T22:56:06.188Z,98399.25
2022-10-09T22:58:32.545Z,98394.41
2022-10-09T23:01:01.836Z,98391.34
2022-10-09T23:03:28.272Z,98385.34
2022-10-09T23:05:55.025Z,98380.97
2022-10-09T23:08:21.396Z,98390.22
2022-10-09T23:10:47.776Z,98378.41
2022-10-09T23:13:14.169Z,98378.75
2022-10-09T23:15:40.533Z,98372.34
2022-10-09T23:18:06.978Z,98371.72
2022-10-09T23:20:35.398Z,98360.78
2022-10-09T23:23:01.826Z,98364.72
2022-10-09T23:25:28.196Z,98367.81
2022-10-09T23:27:54.605Z,98364.56
2022-10-09T23:30:21.007Z,98364.84
2022-10-09T23:32:47.512Z,98362.16
2022-10-09T23:35:14.004Z,98364.03
2022-10-09T23:37:40.374Z,98357.28
2022-10-09T23:40:07.026Z,98349.78
2022-10-09T23:42:33.403Z,98349.31
2022-10-09T23:44:59.765Z,98341.59
2022-10-09T23:47:26.142Z,98343.41
2022-10-09T23:49:52.519Z,98350.38
2022-10-09T23:52:18.928Z,98344.38
2022-10-09T23:54:45.339Z,98345.94
2022-10-09T23:57:11.706Z,98345.69
2022-10-09T23:59:39.398Z,98337.13
